Time;durP1;ratioP1;P1;durP2;ratioP2;P2;SDS_P1;SDS_P2;PMS_P1;PMS_P2;Temp;Humidity;BMP_temperature;BMP_pressure;BME280_temperature;BME280_humidity;BME280_pressure;Samples;Min_cycle;Max_cycle;Signal;HPM_P1;HPM_P2
2022/03/23 00:01:12;;;;;;;;;;;19.10;48.20;;;;;;5020830;28;19955;-65
2022/03/23 00:03:38;;;;;;;;;;;19.10;48.30;;;;;;5006161;28;19909;-67
2022/03/23 00:06:03;;;;;;;;;;;19.00;48.30;;;;;;5022131;28;20284;-67
2022/03/23 00:08:29;;;;;;;;;;;19.00;48.30;;;;;;5017207;28;20003;-66
2022/03/23 00:10:54;;;;;;;;;;;19.00;48.30;;;;;;5022419;28;19977;-67
2022/03/23 00:13:20;;;;;;;;;;;19.00;48.40;;;;;;5018164;28;19913;-67
2022/03/23 00:15:45;;;;;;;;;;;18.90;48.50;;;;;;5022308;28;20454;-64
2022/03/23 00:18:11;;;;;;;;;;;18.80;48.50;;;;;;5019241;28;19921;-66
2022/03/23 00:20:36;;;;;;;;;;;18.80;48.50;;;;;;5020849;28;20380;-66
2022/03/23 00:23:02;;;;;;;;;;;18.80;48.50;;;;;;5018990;28;19909;-65
2022/03/23 00:25:27;;;;;;;;;;;18.80;48.60;;;;;;5004471;28;19913;-69
2022/03/23 00:27:53;;;;;;;;;;;18.80;48.50;;;;;;5019362;28;20283;-68
2022/03/23 00:30:18;;;;;;;;;;;18.80;48.60;;;;;;5021253;28;19909;-65
2022/03/23 00:32:44;;;;;;;;;;;18.80;48.60;;;;;;5016743;28;19944;-67
2022/03/23 00:35:09;;;;;;;;;;;18.80;48.50;;;;;;5021455;28;19963;-66
2022/03/23 00:37:35;;;;;;;;;;;18.80;48.40;;;;;;5018196;28;19913;-64
2022/03/23 00:40:00;;;;;;;;;;;18.80;48.50;;;;;;5003696;28;20283;-66
2022/03/23 00:42:26;;;;;;;;;;;18.80;48.40;;;;;;5018440;28;19972;-67
2022/03/23 00:44:51;;;;;;;;;;;18.80;48.50;;;;;;5021918;28;20533;-67
2022/03/23 00:47:17;;;;;;;;;;;18.70;48.50;;;;;;5018148;28;19936;-65
2022/03/23 00:49:42;;;;;;;;;;;18.70;48.40;;;;;;5020673;28;19923;-66
2022/03/23 00:52:08;;;;;;;;;;;18.70;48.50;;;;;;5017948;28;19909;-68
2022/03/23 00:54:36;;;;;;;;;;;18.70;48.50;;;;;;5022273;28;19945;-66
2022/03/23 00:57:02;;;;;;;;;;;18.70;48.60;;;;;;5021921;28;19909;-65
2022/03/23 00:59:28;;;;;;;;;;;18.60;48.50;;;;;;5017037;28;19913;-66
2022/03/23 01:01:53;;;;;;;;;;;18.60;48.70;;;;;;5022210;28;20391;-66
2022/03/23 01:04:19;;;;;;;;;;;18.60;48.60;;;;;;5005211;28;19913;-65
2022/03/23 01:06:44;;;;;;;;;;;18.60;48.70;;;;;;5021955;28;19917;-67
2022/03/23 01:09:10;;;;;;;;;;;18.50;48.70;;;;;;5016313;28;20604;-66
2022/03/23 01:11:37;;;;;;;;;;;18.50;48.70;;;;;;5021347;28;19941;-68
2022/03/23 01:14:03;;;;;;;;;;;18.50;48.70;;;;;;5018528;28;19929;-65
2022/03/23 01:16:28;;;;;;;;;;;18.50;48.70;;;;;;5021244;28;20287;-66
2022/03/23 01:18:53;;;;;;;;;;;18.50;48.70;;;;;;5014827;28;19954;-67
2022/03/23 01:21:19;;;;;;;;;;;18.50;48.70;;;;;;5020027;28;19976;-67
2022/03/23 01:23:44;;;;;;;;;;;18.50;48.70;;;;;;5017370;28;20637;-67
2022/03/23 01:26:10;;;;;;;;;;;18.50;48.60;;;;;;5021746;28;19917;-65
2022/03/23 01:28:35;;;;;;;;;;;18.50;48.70;;;;;;5017843;28;19917;-67
2022/03/23 01:31:01;;;;;;;;;;;18.50;48.70;;;;;;5021543;28;20008;-66
2022/03/23 01:33:26;;;;;;;;;;;18.50;48.70;;;;;;5015293;28;19925;-65
2022/03/23 01:35:52;;;;;;;;;;;18.50;48.60;;;;;;5021536;28;19918;-64
2022/03/23 01:38:17;;;;;;;;;;;18.50;48.60;;;;;;5015936;28;19917;-67
2022/03/23 01:40:43;;;;;;;;;;;18.50;48.60;;;;;;5020813;28;19920;-65
2022/03/23 01:43:08;;;;;;;;;;;18.50;48.60;;;;;;5016772;28;20418;-66
2022/03/23 01:45:34;;;;;;;;;;;18.40;48.70;;;;;;5021614;28;19913;-66
2022/03/23 01:47:59;;;;;;;;;;;18.40;48.70;;;;;;5015924;28;19948;-66
2022/03/23 01:50:24;;;;;;;;;;;18.40;48.60;;;;;;5002515;28;19925;-67
2022/03/23 01:52:50;;;;;;;;;;;18.40;48.60;;;;;;5015215;28;20247;-65
2022/03/23 01:55:17;;;;;;;;;;;18.40;48.60;;;;;;5021006;28;19933;-65
2022/03/23 01:57:47;;;;;;;;;;;18.40;48.60;;;;;;5014614;28;20003;-64
2022/03/23 02:00:15;;;;;;;;;;;18.40;48.70;;;;;;5020871;28;19909;-64
2022/03/23 02:02:40;;;;;;;;;;;18.40;48.60;;;;;;5016159;28;19917;-66
2022/03/23 02:05:06;;;;;;;;;;;18.40;48.60;;;;;;5021943;28;19913;-64
2022/03/23 02:07:31;;;;;;;;;;;18.40;48.60;;;;;;4998505;28;19913;-65
2022/03/23 02:09:57;;;;;;;;;;;18.40;48.50;;;;;;5020664;28;19909;-65
2022/03/23 02:12:22;;;;;;;;;;;18.50;48.40;;;;;;5015913;28;19909;-64
2022/03/23 02:14:48;;;;;;;;;;;18.40;48.50;;;;;;5003761;28;20317;-66
2022/03/23 02:17:14;;;;;;;;;;;18.40;48.50;;;;;;5014693;28;19995;-69
2022/03/23 02:19:39;;;;;;;;;;;18.40;48.60;;;;;;5019741;28;20352;-64
2022/03/23 02:22:05;;;;;;;;;;;18.40;48.60;;;;;;5022667;28;19921;-64
2022/03/23 02:24:31;;;;;;;;;;;18.30;48.50;;;;;;5019818;28;19932;-66
2022/03/23 02:26:56;;;;;;;;;;;18.40;48.50;;;;;;5008632;28;19994;-67
2022/03/23 02:29:22;;;;;;;;;;;18.30;48.40;;;;;;5020905;28;19963;-66
2022/03/23 02:31:48;;;;;;;;;;;18.30;48.50;;;;;;5006893;28;19913;-65
2022/03/23 02:34:13;;;;;;;;;;;18.30;48.50;;;;;;5017905;28;20001;-65
2022/03/23 02:36:39;;;;;;;;;;;18.30;48.60;;;;;;5024415;28;19909;-66
2022/03/23 02:39:04;;;;;;;;;;;18.30;48.60;;;;;;5019072;28;19924;-64
2022/03/23 02:41:30;;;;;;;;;;;18.30;48.50;;;;;;5024357;28;19945;-70
2022/03/23 02:43:55;;;;;;;;;;;18.30;49.10;;;;;;5002635;28;19966;-66
2022/03/23 02:46:21;;;;;;;;;;;18.30;48.50;;;;;;5023775;28;20364;-65
2022/03/23 02:48:47;;;;;;;;;;;18.30;48.50;;;;;;5018993;28;19913;-65
2022/03/23 02:51:12;;;;;;;;;;;18.30;48.40;;;;;;5024618;28;19920;-65
2022/03/23 03:02:13;;;;;;;;;;;18.30;48.30;;;;;;5019677;28;19920;-62
2022/03/23 03:04:38;;;;;;;;;;;18.40;48.10;;;;;;5022822;28;19913;-65
2022/03/23 03:07:03;;;;;;;;;;;18.40;47.90;;;;;;5006627;28;19964;-63
2022/03/23 03:09:29;;;;;;;;;;;18.40;47.90;;;;;;5018290;28;19925;-65
2022/03/23 03:11:54;;;;;;;;;;;18.40;47.80;;;;;;5024043;28;19913;-64
2022/03/23 03:14:20;;;;;;;;;;;18.50;47.80;;;;;;4999124;28;19917;-68
2022/03/23 03:16:45;;;;;;;;;;;18.40;47.70;;;;;;5023806;28;20443;-66
2022/03/23 03:19:12;;;;;;;;;;;18.50;47.70;;;;;;5018244;28;19991;-64
2022/03/23 03:21:38;;;;;;;;;;;18.40;47.70;;;;;;5023307;28;19924;-67
2022/03/23 03:24:04;;;;;;;;;;;18.40;47.70;;;;;;5018716;28;20037;-62
2022/03/23 03:26:32;;;;;;;;;;;18.40;47.70;;;;;;5023195;28;19913;-68
2022/03/23 03:28:57;;;;;;;;;;;18.40;47.70;;;;;;5017319;28;19913;-67
2022/03/23 03:31:23;;;;;;;;;;;18.40;47.60;;;;;;5019427;28;19916;-69
2022/03/23 03:33:48;;;;;;;;;;;18.40;47.70;;;;;;5014511;28;20402;-68
2022/03/23 03:36:15;;;;;;;;;;;18.40;47.70;;;;;;5019658;28;19913;-65
2022/03/23 03:38:40;;;;;;;;;;;18.30;47.70;;;;;;5017600;28;19917;-65
2022/03/23 03:41:06;;;;;;;;;;;18.30;47.80;;;;;;5005973;28;19916;-64
2022/03/23 03:43:31;;;;;;;;;;;18.30;47.90;;;;;;5019268;28;19909;-65
2022/03/23 03:45:57;;;;;;;;;;;18.30;47.90;;;;;;5022726;28;19960;-64
2022/03/23 03:48:22;;;;;;;;;;;18.30;47.90;;;;;;5019168;28;19913;-64
2022/03/23 03:50:48;;;;;;;;;;;18.20;47.90;;;;;;5022717;28;20036;-68
2022/03/23 03:53:13;;;;;;;;;;;18.20;48.00;;;;;;5009173;28;19921;-67
2022/03/23 03:55:39;;;;;;;;;;;18.10;48.20;;;;;;5019846;28;20756;-65
2022/03/23 03:58:05;;;;;;;;;;;18.10;48.20;;;;;;5008079;28;19909;-67
2022/03/23 04:00:30;;;;;;;;;;;18.00;48.30;;;;;;5021187;28;20130;-63
2022/03/23 04:02:56;;;;;;;;;;;18.10;48.30;;;;;;5007111;28;20408;-68
2022/03/23 04:05:22;;;;;;;;;;;18.10;48.30;;;;;;5020602;28;19929;-68
2022/03/23 04:07:47;;;;;;;;;;;18.00;48.30;;;;;;5016440;28;19917;-67
2022/03/23 04:10:12;;;;;;;;;;;18.10;48.30;;;;;;5021050;28;20287;-64
2022/03/23 04:12:39;;;;;;;;;;;18.00;48.20;;;;;;5018245;28;19924;-64
2022/03/23 04:15:05;;;;;;;;;;;18.10;48.20;;;;;;5004768;28;19913;-67
2022/03/23 04:17:30;;;;;;;;;;;18.10;48.10;;;;;;5017705;28;19922;-67
2022/03/23 04:19:56;;;;;;;;;;;18.10;48.00;;;;;;5021740;28;20533;-65
2022/03/23 04:22:21;;;;;;;;;;;18.10;48.00;;;;;;5017051;28;19959;-69
2022/03/23 04:24:47;;;;;;;;;;;18.10;48.00;;;;;;5021602;28;19952;-69
2022/03/23 04:27:12;;;;;;;;;;;18.10;47.90;;;;;;5018043;28;19913;-65
2022/03/23 04:29:39;;;;;;;;;;;18.10;47.90;;;;;;5021854;28;19913;-62
2022/03/23 04:32:04;;;;;;;;;;;18.20;47.80;;;;;;5022271;28;19909;-66
2022/03/23 04:34:30;;;;;;;;;;;18.20;47.80;;;;;;5015075;28;19931;-64
2022/03/23 04:36:55;;;;;;;;;;;18.10;47.70;;;;;;5021821;28;19948;-63
2022/03/23 04:39:21;;;;;;;;;;;18.20;47.70;;;;;;5016027;28;19940;-69
2022/03/23 04:41:46;;;;;;;;;;;18.00;47.90;;;;;;5022319;28;20284;-63
2022/03/23 04:44:12;;;;;;;;;;;18.00;48.20;;;;;;5017505;28;19913;-67
2022/03/23 04:46:37;;;;;;;;;;;17.90;48.30;;;;;;5021401;28;19999;-67
2022/03/23 04:49:03;;;;;;;;;;;17.90;48.40;;;;;;5017104;28;20360;-68
2022/03/23 04:51:29;;;;;;;;;;;17.80;48.40;;;;;;5021554;28;19971;-68
2022/03/23 04:53:55;;;;;;;;;;;17.80;48.50;;;;;;5015494;28;19913;-63
2022/03/23 04:56:20;;;;;;;;;;;17.80;48.60;;;;;;5021804;28;19923;-65
2022/03/23 04:58:45;;;;;;;;;;;17.70;48.60;;;;;;5016683;28;19917;-65
2022/03/23 05:01:11;;;;;;;;;;;17.70;48.80;;;;;;5020999;28;19952;-62
2022/03/23 05:03:36;;;;;;;;;;;17.70;48.70;;;;;;5016675;28;19913;-63
2022/03/23 05:06:02;;;;;;;;;;;17.70;49.00;;;;;;5020248;28;20665;-64
2022/03/23 05:08:28;;;;;;;;;;;17.70;49.10;;;;;;5019987;28;19998;-68
2022/03/23 05:10:53;;;;;;;;;;;17.70;49.00;;;;;;5021459;28;19921;-63
2022/03/23 05:13:18;;;;;;;;;;;17.60;49.00;;;;;;5021515;28;19909;-67
2022/03/23 05:15:44;;;;;;;;;;;17.60;49.10;;;;;;5021009;28;20002;-63
2022/03/23 05:18:09;;;;;;;;;;;17.60;49.10;;;;;;5021898;28;19913;-69
2022/03/23 05:20:35;;;;;;;;;;;17.70;49.10;;;;;;5020426;28;19996;-63
2022/03/23 05:23:00;;;;;;;;;;;17.70;49.10;;;;;;5019906;28;20616;-68
2022/03/23 05:25:26;;;;;;;;;;;17.70;49.00;;;;;;5021302;28;19913;-67
2022/03/23 05:27:51;;;;;;;;;;;17.80;48.90;;;;;;5021303;28;19913;-69
2022/03/23 05:30:17;;;;;;;;;;;17.80;49.00;;;;;;5003639;28;19913;-69
2022/03/23 05:32:42;;;;;;;;;;;17.80;49.20;;;;;;5021668;28;19959;-66
2022/03/23 05:35:08;;;;;;;;;;;17.80;49.30;;;;;;5022106;28;20771;-68
2022/03/23 05:37:33;;;;;;;;;;;17.90;49.20;;;;;;5002925;28;20335;-67
2022/03/23 05:39:59;;;;;;;;;;;18.00;49.00;;;;;;5020418;28;19913;-67
2022/03/23 05:42:24;;;;;;;;;;;18.10;48.90;;;;;;5021215;28;19963;-66
2022/03/23 05:44:50;;;;;;;;;;;18.10;49.00;;;;;;5020755;28;19926;-66
2022/03/23 05:47:15;;;;;;;;;;;18.00;49.10;;;;;;5021141;28;20004;-65
2022/03/23 05:49:41;;;;;;;;;;;18.10;49.10;;;;;;5020708;28;19923;-66
2022/03/23 05:52:06;;;;;;;;;;;18.20;48.90;;;;;;5020719;28;19913;-68
2022/03/23 05:54:32;;;;;;;;;;;18.30;48.60;;;;;;5020951;28;19939;-65
2022/03/23 05:56:57;;;;;;;;;;;18.40;48.50;;;;;;5020941;28;19913;-65
2022/03/23 05:59:23;;;;;;;;;;;18.50;48.60;;;;;;5021814;28;20284;-66
2022/03/23 06:01:48;;;;;;;;;;;18.50;48.50;;;;;;5025284;28;20003;-66
2022/03/23 06:04:14;;;;;;;;;;;18.50;48.40;;;;;;5007340;28;20352;-65
2022/03/23 06:06:39;;;;;;;;;;;18.60;48.40;;;;;;5024700;28;20427;-65
2022/03/23 06:09:05;;;;;;;;;;;18.60;48.60;;;;;;5023372;28;19909;-64
2022/03/23 06:11:30;;;;;;;;;;;18.60;48.50;;;;;;5024749;28;19920;-65
2022/03/23 06:13:57;;;;;;;;;;;18.50;48.70;;;;;;5024364;28;20306;-64
2022/03/23 06:16:22;;;;;;;;;;;18.50;48.90;;;;;;5025043;28;19909;-65
2022/03/23 06:18:48;;;;;;;;;;;18.50;49.20;;;;;;5023795;28;19928;-66
2022/03/23 06:21:13;;;;;;;;;;;18.60;49.00;;;;;;5023687;28;19925;-66
2022/03/23 06:23:39;;;;;;;;;;;18.60;49.00;;;;;;5021673;28;19909;-65
2022/03/23 06:26:04;;;;;;;;;;;18.60;49.00;;;;;;5011147;28;19995;-66
2022/03/23 06:28:30;;;;;;;;;;;18.60;49.50;;;;;;5021820;28;19931;-67
2022/03/23 06:30:55;;;;;;;;;;;18.50;49.70;;;;;;5022298;28;20467;-67
2022/03/23 06:33:21;;;;;;;;;;;18.50;50.00;;;;;;5021158;28;20406;-65
2022/03/23 06:35:46;;;;;;;;;;;18.60;49.90;;;;;;5022569;28;19917;-66
2022/03/23 06:38:15;;;;;;;;;;;18.60;49.80;;;;;;5024899;28;19920;-65
2022/03/23 06:40:40;;;;;;;;;;;18.60;49.80;;;;;;5025631;28;20356;-66
2022/03/23 06:43:06;;;;;;;;;;;18.60;49.70;;;;;;5024737;28;19936;-64
2022/03/23 06:45:32;;;;;;;;;;;18.60;49.60;;;;;;5024807;28;19909;-65
2022/03/23 06:47:57;;;;;;;;;;;18.60;49.40;;;;;;5024603;28;20615;-66
2022/03/23 06:50:23;;;;;;;;;;;18.60;49.10;;;;;;5023327;28;20560;-67
2022/03/23 06:52:48;;;;;;;;;;;18.60;49.80;;;;;;5024380;28;19979;-66
2022/03/23 06:55:14;;;;;;;;;;;18.70;49.20;;;;;;5024563;28;19919;-65
2022/03/23 06:57:39;;;;;;;;;;;18.60;49.80;;;;;;5024913;28;19913;-66
2022/03/23 07:00:12;;;;;;;;;;;18.60;50.00;;;;;;5023906;28;19949;-65
2022/03/23 07:02:39;;;;;;;;;;;18.60;49.90;;;;;;5024759;28;19909;-65
2022/03/23 07:05:05;;;;;;;;;;;18.60;49.90;;;;;;5024614;28;19920;-65
2022/03/23 07:07:30;;;;;;;;;;;18.50;49.80;;;;;;5007077;28;19913;-66
2022/03/23 07:09:55;;;;;;;;;;;18.50;49.70;;;;;;5024264;28;19914;-65
2022/03/23 07:12:21;;;;;;;;;;;18.50;49.30;;;;;;5024797;28;20021;-65
2022/03/23 07:14:48;;;;;;;;;;;18.50;49.20;;;;;;5024807;28;19963;-65
2022/03/23 07:17:13;;;;;;;;;;;18.50;49.10;;;;;;5023683;28;19929;-65
2022/03/23 07:19:39;;;;;;;;;;;18.50;48.80;;;;;;5023544;28;19913;-64
2022/03/23 07:22:04;;;;;;;;;;;18.50;48.70;;;;;;5022028;28;20011;-64
2022/03/23 07:24:30;;;;;;;;;;;18.60;49.20;;;;;;5023299;28;20375;-65
2022/03/23 07:26:55;;;;;;;;;;;18.60;48.40;;;;;;5005733;28;19924;-65
2022/03/23 07:29:20;;;;;;;;;;;18.60;48.40;;;;;;5023127;28;20344;-66
2022/03/23 07:31:46;;;;;;;;;;;18.60;48.30;;;;;;5006319;28;20136;-66
2022/03/23 07:34:14;;;;;;;;;;;18.60;48.40;;;;;;5006268;28;19975;-65
2022/03/23 07:36:40;;;;;;;;;;;18.60;48.50;;;;;;5023260;28;19945;-64
2022/03/23 07:39:06;;;;;;;;;;;18.60;48.80;;;;;;5005339;28;20012;-64
2022/03/23 07:41:31;;;;;;;;;;;18.60;49.20;;;;;;5022301;28;20002;-65
2022/03/23 07:43:57;;;;;;;;;;;18.60;49.30;;;;;;5022654;28;19955;-65
2022/03/23 07:46:22;;;;;;;;;;;18.60;49.30;;;;;;5038075;22;19925;-53
2022/03/23 07:48:48;;;;;;;;;;;18.60;49.40;;;;;;5019030;28;20410;-53
2022/03/23 07:51:13;;;;;;;;;;;18.60;49.40;;;;;;5020032;28;19913;-53
2022/03/23 07:53:38;;;;;;;;;;;18.60;49.40;;;;;;5017976;28;19921;-56
2022/03/23 07:56:04;;;;;;;;;;;18.60;49.30;;;;;;5020394;28;20381;-58
2022/03/23 07:58:30;;;;;;;;;;;18.60;49.20;;;;;;5018383;28;19921;-54
2022/03/23 08:00:56;;;;;;;;;;;18.60;49.20;;;;;;5019878;28;20023;-57
2022/03/23 08:03:21;;;;;;;;;;;18.60;49.30;;;;;;5019891;28;19953;-56
2022/03/23 08:05:47;;;;;;;;;;;18.60;49.10;;;;;;5020057;28;19920;-56
2022/03/23 08:08:12;;;;;;;;;;;18.60;49.10;;;;;;5019961;28;19943;-54
2022/03/23 08:10:41;;;;;;;;;;;18.70;49.20;;;;;;5019354;28;20788;-54
2022/03/23 08:13:09;;;;;;;;;;;18.60;49.10;;;;;;5019868;28;19925;-52
2022/03/23 08:15:37;;;;;;;;;;;18.60;49.20;;;;;;5019805;28;20388;-55
2022/03/23 08:18:03;;;;;;;;;;;18.60;49.20;;;;;;5019811;28;19996;-56
2022/03/23 08:20:37;;;;;;;;;;;18.70;49.20;;;;;;5019797;28;20536;-56
2022/03/23 08:23:04;;;;;;;;;;;18.70;49.10;;;;;;5019287;28;21322;-55
2022/03/23 08:25:29;;;;;;;;;;;18.60;49.10;;;;;;5019224;28;20425;-57
2022/03/23 08:27:55;;;;;;;;;;;18.60;49.10;;;;;;5020063;28;19913;-56
2022/03/23 08:30:20;;;;;;;;;;;18.60;49.20;;;;;;5019139;28;20340;-52
2022/03/23 08:32:46;;;;;;;;;;;18.70;49.10;;;;;;5019368;28;20398;-53
2022/03/23 08:35:11;;;;;;;;;;;18.70;49.10;;;;;;5019573;28;19921;-53
2022/03/23 08:37:37;;;;;;;;;;;18.70;49.00;;;;;;5017542;28;19917;-52
2022/03/23 08:40:03;;;;;;;;;;;18.70;49.10;;;;;;5016883;28;19925;-52
2022/03/23 08:42:28;;;;;;;;;;;18.60;48.90;;;;;;5019685;28;19913;-55
2022/03/23 08:44:54;;;;;;;;;;;18.70;49.00;;;;;;5019666;28;19914;-51
2022/03/23 08:47:19;;;;;;;;;;;18.70;49.00;;;;;;5019397;28;20412;-52
2022/03/23 08:49:45;;;;;;;;;;;18.70;49.00;;;;;;5018853;28;19913;-53
2022/03/23 08:52:10;;;;;;;;;;;18.60;48.90;;;;;;5019734;28;19914;-53
2022/03/23 08:54:35;;;;;;;;;;;18.60;48.90;;;;;;5017579;28;19979;-54
2022/03/23 08:57:01;;;;;;;;;;;18.70;48.90;;;;;;5019309;28;19971;-53
2022/03/23 08:59:26;;;;;;;;;;;18.70;48.90;;;;;;5018942;28;20402;-53
2022/03/23 09:01:52;;;;;;;;;;;18.70;49.00;;;;;;5018820;28;20103;-55
2022/03/23 09:04:17;;;;;;;;;;;18.70;49.00;;;;;;5018931;28;19917;-54
2022/03/23 09:06:43;;;;;;;;;;;18.70;49.00;;;;;;5019237;28;19943;-55
2022/03/23 09:09:08;;;;;;;;;;;18.70;49.00;;;;;;5017878;28;20513;-53
2022/03/23 09:11:34;;;;;;;;;;;18.70;49.20;;;;;;5019033;28;19929;-53
2022/03/23 09:13:59;;;;;;;;;;;18.70;49.20;;;;;;5018628;28;19940;-52
2022/03/23 09:16:25;;;;;;;;;;;18.70;49.20;;;;;;5019229;28;19917;-52
2022/03/23 09:18:50;;;;;;;;;;;18.70;49.30;;;;;;5017263;28;20353;-54
2022/03/23 09:21:16;;;;;;;;;;;18.70;49.30;;;;;;5018550;28;19917;-53
2022/03/23 09:23:41;;;;;;;;;;;18.70;49.30;;;;;;5018015;28;19913;-53
2022/03/23 09:26:09;;;;;;;;;;;18.60;49.20;;;;;;5018919;28;20398;-51
2022/03/23 09:28:34;;;;;;;;;;;18.60;49.20;;;;;;5018566;28;19941;-54
2022/03/23 09:31:00;;;;;;;;;;;18.60;49.30;;;;;;5018728;28;20072;-55
2022/03/23 09:33:26;;;;;;;;;;;18.60;49.30;;;;;;5020625;28;20405;-54
2022/03/23 09:35:52;;;;;;;;;;;18.60;49.30;;;;;;5022582;28;19917;-55
2022/03/23 09:38:17;;;;;;;;;;;18.60;49.30;;;;;;5022474;28;20325;-52
2022/03/23 09:40:44;;;;;;;;;;;18.70;49.30;;;;;;5020913;28;19914;-54
2022/03/23 09:43:11;;;;;;;;;;;18.60;49.20;;;;;;5021278;28;19968;-54
2022/03/23 09:48:03;;;;;;;;;;;18.70;49.20;;;;;;5022713;28;19926;-53
2022/03/23 09:50:32;;;;;;;;;;;18.70;49.20;;;;;;5021503;28;20294;-53
2022/03/23 09:52:58;;;;;;;;;;;18.70;49.10;;;;;;5022543;28;19913;-54
2022/03/23 09:55:23;;;;;;;;;;;18.70;49.10;;;;;;5022205;28;19917;-55
2022/03/23 09:57:49;;;;;;;;;;;18.70;49.10;;;;;;5022926;28;19917;-52
2022/03/23 10:00:14;;;;;;;;;;;18.80;49.00;;;;;;5021874;28;20000;-52
2022/03/23 10:02:40;;;;;;;;;;;18.80;48.90;;;;;;5023219;28;20089;-53
2022/03/23 10:05:14;;;;;;;;;;;18.80;48.80;;;;;;5021702;28;19913;-56
2022/03/23 10:07:55;;;;;;;;;;;18.80;48.80;;;;;;5022608;28;19975;-54
2022/03/23 10:10:52;;;;;;;;;;;18.80;48.80;;;;;;5021075;28;20374;-54
2022/03/23 10:13:36;;;;;;;;;;;18.80;48.80;;;;;;5020937;28;20499;-56
2022/03/23 10:16:10;;;;;;;;;;;18.90;48.80;;;;;;5022344;28;20579;-54
2022/03/23 10:18:49;;;;;;;;;;;18.90;48.70;;;;;;5021513;28;20134;-54
2022/03/23 10:21:14;;;;;;;;;;;18.90;48.70;;;;;;5021831;28;19917;-53
2022/03/23 10:23:49;;;;;;;;;;;18.90;48.60;;;;;;5021756;28;20389;-51
2022/03/23 10:26:15;;;;;;;;;;;19.00;48.60;;;;;;5020289;28;20438;-51
2022/03/23 10:28:40;;;;;;;;;;;19.00;48.60;;;;;;5020240;28;19921;-55
2022/03/23 10:31:16;;;;;;;;;;;19.00;48.60;;;;;;5021177;28;19928;-54
2022/03/23 10:33:41;;;;;;;;;;;19.00;48.60;;;;;;5019867;28;19920;-54
2022/03/23 10:36:07;;;;;;;;;;;18.90;48.50;;;;;;5020998;28;19917;-54
2022/03/23 10:38:36;;;;;;;;;;;19.00;48.50;;;;;;5020806;28;19962;-52
2022/03/23 10:41:07;;;;;;;;;;;19.00;48.60;;;;;;5020286;28;19913;-51
2022/03/23 10:43:36;;;;;;;;;;;19.00;48.60;;;;;;5021571;28;19974;-54
2022/03/23 10:46:11;;;;;;;;;;;19.00;48.60;;;;;;5020856;28;19963;-51
2022/03/23 10:48:36;;;;;;;;;;;19.00;48.50;;;;;;5020829;28;20491;-55
2022/03/23 10:51:02;;;;;;;;;;;19.00;48.50;;;;;;5021785;28;19974;-54
2022/03/23 10:53:35;;;;;;;;;;;19.00;48.50;;;;;;5020514;28;19913;-53
2022/03/23 10:56:00;;;;;;;;;;;19.00;48.50;;;;;;5021487;28;19992;-51
2022/03/23 10:58:26;;;;;;;;;;;19.00;48.50;;;;;;5020408;28;20446;-53
2022/03/23 11:00:55;;;;;;;;;;;19.00;48.50;;;;;;5021582;28;19932;-53
2022/03/23 11:03:34;;;;;;;;;;;19.00;48.50;;;;;;5022012;28;19917;-52
2022/03/23 11:06:00;;;;;;;;;;;19.00;48.40;;;;;;5021889;28;20445;-57
2022/03/23 11:08:26;;;;;;;;;;;19.00;48.50;;;;;;5021212;28;19920;-57
2022/03/23 11:16:30;;;;;;;;;;;19.10;48.30;;;;;;5020519;28;19924;-56
2022/03/23 11:18:56;;;;;;;;;;;19.10;48.30;;;;;;5018825;28;19917;-52
2022/03/23 11:21:22;;;;;;;;;;;19.10;48.30;;;;;;5021057;28;19924;-52
2022/03/23 11:23:47;;;;;;;;;;;19.10;48.30;;;;;;5020658;28;19913;-53
2022/03/23 11:26:13;;;;;;;;;;;19.10;48.40;;;;;;5021307;28;20387;-53
2022/03/23 11:28:43;;;;;;;;;;;19.10;48.30;;;;;;5017522;28;19913;-56
2022/03/23 11:31:09;;;;;;;;;;;19.10;48.40;;;;;;5017658;28;20028;-53
2022/03/23 11:33:35;;;;;;;;;;;19.10;48.40;;;;;;5016327;28;20425;-56
2022/03/23 11:36:01;;;;;;;;;;;19.10;48.30;;;;;;5023742;28;19917;-52
2022/03/23 11:38:27;;;;;;;;;;;19.10;48.40;;;;;;5016334;28;20376;-57
2022/03/23 11:40:53;;;;;;;;;;;19.10;48.30;;;;;;5025472;28;19963;-56
2022/03/23 11:43:19;;;;;;;;;;;19.10;48.30;;;;;;5017459;28;19913;-54
2022/03/23 11:45:45;;;;;;;;;;;19.10;48.30;;;;;;5026887;28;19917;-55
2022/03/23 11:48:13;;;;;;;;;;;19.20;48.30;;;;;;5028012;28;19982;-57
2022/03/23 11:50:41;;;;;;;;;;;19.20;48.30;;;;;;5018320;28;19970;-55
2022/03/23 11:53:17;;;;;;;;;;;19.20;48.40;;;;;;5014745;28;19912;-54
2022/03/23 11:55:46;;;;;;;;;;;19.20;48.30;;;;;;5018110;28;19928;-56
2022/03/23 11:58:21;;;;;;;;;;;19.20;48.30;;;;;;5015060;28;20420;-52
2022/03/23 12:00:56;;;;;;;;;;;19.20;48.30;;;;;;5026296;28;19924;-57
2022/03/23 12:03:39;;;;;;;;;;;19.20;48.20;;;;;;5017693;28;19917;-56
2022/03/23 12:06:09;;;;;;;;;;;19.30;48.30;;;;;;5024745;28;19941;-57
2022/03/23 12:08:57;;;;;;;;;;;19.30;48.30;;;;;;5010176;28;19963;-55
2022/03/23 12:11:32;;;;;;;;;;;19.30;48.30;;;;;;5022144;28;19953;-57
2022/03/23 12:13:57;;;;;;;;;;;19.30;48.20;;;;;;5021263;28;19913;-57
2022/03/23 12:16:42;;;;;;;;;;;19.30;48.20;;;;;;5021980;28;19921;-54
2022/03/23 12:19:07;;;;;;;;;;;19.40;48.30;;;;;;5022581;28;20400;-52
2022/03/23 12:21:40;;;;;;;;;;;19.30;48.20;;;;;;5020142;28;20097;-55
2022/03/23 12:24:13;;;;;;;;;;;19.30;48.20;;;;;;5023179;28;19913;-54
2022/03/23 12:26:46;;;;;;;;;;;19.30;48.10;;;;;;5017848;28;19913;-51
2022/03/23 12:29:13;;;;;;;;;;;19.30;48.10;;;;;;5021617;28;19920;-54
2022/03/23 12:31:39;;;;;;;;;;;19.40;48.20;;;;;;5020163;28;20350;-51
2022/03/23 12:34:23;;;;;;;;;;;19.40;48.20;;;;;;5005810;28;19928;-52
2022/03/23 12:37:01;;;;;;;;;;;19.40;48.20;;;;;;5018916;28;19918;-54
2022/03/23 12:39:27;;;;;;;;;;;19.40;48.10;;;;;;5022291;28;20492;-51
2022/03/23 12:41:53;;;;;;;;;;;19.40;48.10;;;;;;5019530;28;20015;-52
2022/03/23 12:44:27;;;;;;;;;;;19.40;48.10;;;;;;5007805;28;20329;-54
2022/03/23 12:46:53;;;;;;;;;;;19.40;48.10;;;;;;5019490;28;19921;-53
2022/03/23 12:57:50;;;;;;;;;;;19.50;48.10;;;;;;5010073;28;20047;-54
2022/03/23 13:00:28;;;;;;;;;;;19.50;47.90;;;;;;4998077;28;20346;-54
2022/03/23 13:03:03;;;;;;;;;;;19.50;47.90;;;;;;5012815;28;20574;-55
2022/03/23 13:05:29;;;;;;;;;;;19.50;47.90;;;;;;5027017;28;20703;-52
2022/03/23 13:07:55;;;;;;;;;;;19.60;48.00;;;;;;5009434;28;19996;-55
2022/03/23 13:10:24;;;;;;;;;;;19.50;47.90;;;;;;5016873;28;19913;-54
2022/03/23 13:12:50;;;;;;;;;;;19.50;47.90;;;;;;5010677;28;19917;-52
2022/03/23 13:15:18;;;;;;;;;;;19.60;47.90;;;;;;5017383;28;20051;-53
2022/03/23 13:17:47;;;;;;;;;;;19.60;47.90;;;;;;5011738;28;19936;-52
2022/03/23 13:20:16;;;;;;;;;;;19.60;47.80;;;;;;5029160;28;19920;-52
2022/03/23 13:22:41;;;;;;;;;;;19.60;47.90;;;;;;5011095;28;20369;-53
2022/03/23 13:25:08;;;;;;;;;;;19.60;47.90;;;;;;5017692;28;19968;-54
2022/03/23 13:27:37;;;;;;;;;;;19.60;47.80;;;;;;5009518;28;19929;-53
2022/03/23 13:30:04;;;;;;;;;;;19.60;47.80;;;;;;5030397;28;19913;-53
2022/03/23 13:32:31;;;;;;;;;;;19.60;47.70;;;;;;5010007;28;20133;-51
2022/03/23 13:34:57;;;;;;;;;;;19.70;47.70;;;;;;5030791;28;19917;-52
2022/03/23 13:37:23;;;;;;;;;;;19.70;47.80;;;;;;5007597;28;20203;-54
2022/03/23 13:39:48;;;;;;;;;;;19.60;47.80;;;;;;5031811;28;20328;-54
2022/03/23 13:45:04;;;;;;;;;;;19.70;47.70;;;;;;5019063;28;19920;-52
2022/03/23 13:47:30;;;;;;;;;;;19.70;47.70;;;;;;5006779;28;19940;-53
2022/03/23 13:49:57;;;;;;;;;;;19.70;47.70;;;;;;5015875;28;19952;-55
2022/03/23 13:52:23;;;;;;;;;;;19.60;47.70;;;;;;5008646;28;19940;-54
2022/03/23 13:54:48;;;;;;;;;;;19.60;47.70;;;;;;5016808;28;19924;-54
2022/03/23 13:57:14;;;;;;;;;;;19.70;47.70;;;;;;5008018;28;19917;-53
2022/03/23 13:59:39;;;;;;;;;;;19.70;47.70;;;;;;5033034;28;20109;-52
2022/03/23 14:02:05;;;;;;;;;;;19.70;47.80;;;;;;5018082;28;19913;-54
2022/03/23 14:04:31;;;;;;;;;;;19.70;47.80;;;;;;5021608;28;19913;-52
2022/03/23 14:06:57;;;;;;;;;;;19.70;47.80;;;;;;5018669;28;19917;-53
2022/03/23 14:09:23;;;;;;;;;;;19.70;47.70;;;;;;5020869;28;20150;-51
2022/03/23 14:12:03;;;;;;;;;;;19.70;47.70;;;;;;5018525;28;20524;-54
2022/03/23 14:14:31;;;;;;;;;;;19.70;47.80;;;;;;5021538;28;20580;-53
2022/03/23 14:17:01;;;;;;;;;;;19.70;47.70;;;;;;5018456;28;19917;-52
2022/03/23 14:19:29;;;;;;;;;;;19.70;47.70;;;;;;5005735;28;19917;-54
2022/03/23 14:21:58;;;;;;;;;;;19.80;47.80;;;;;;5021999;28;20128;-52
2022/03/23 14:24:34;;;;;;;;;;;19.80;47.70;;;;;;5024685;28;20008;-52
2022/03/23 14:27:11;;;;;;;;;;;19.80;47.90;;;;;;5022141;28;19913;-52
2022/03/23 14:29:37;;;;;;;;;;;19.80;47.70;;;;;;5008747;28;20399;-51
2022/03/23 14:32:03;;;;;;;;;;;19.90;47.90;;;;;;5021647;28;19996;-54
2022/03/23 14:34:30;;;;;;;;;;;19.90;47.80;;;;;;5023474;28;20379;-55
2022/03/23 14:37:22;;;;;;;;;;;19.90;47.90;;;;;;5021892;28;19959;-53
2022/03/23 14:39:48;;;;;;;;;;;19.90;47.70;;;;;;5018877;28;20004;-51
2022/03/23 14:42:14;;;;;;;;;;;19.90;47.70;;;;;;5013096;28;20028;-52